Time;durP1;ratioP1;P1;durP2;ratioP2;P2;SDS_P1;SDS_P2;PMS_P1;PMS_P2;Temp;Humidity;BMP_temperature;BMP_pressure;BME280_temperature;BME280_humidity;BME280_pressure;Samples;Min_cycle;Max_cycle;Signal;HPM_P1;HPM_P2
2021/04/11 00:02:36;;;;;;;55.47;29.67;;;;;;;9.32;76.83;100621.22;20875070;28;20236;-54
2021/04/11 00:12:36;;;;;;;46.37;27.97;;;;;;;9.22;77.72;100627.13;20874161;28;20226;-54
2021/04/11 00:22:37;;;;;;;73.33;36.43;;;;;;;9.18;78.82;100617.56;20874001;28;20230;-61
2021/04/11 00:32:38;;;;;;;52.67;31.67;;;;;;;9.02;79.17;100625.53;20871482;28;20227;-64
2021/04/11 00:42:41;;;;;;;54.50;32.10;;;;;;;8.94;80.54;100628.56;20869114;28;20861;-69
2021/04/11 00:52:43;;;;;;;47.93;29.23;;;;;;;8.76;81.13;100608.25;20869212;28;20228;-65
2021/04/11 01:02:45;;;;;;;42.57;29.40;;;;;;;8.76;81.45;100640.19;20868542;28;20244;-61
2021/04/11 01:12:46;;;;;;;44.27;28.43;;;;;;;8.62;81.93;100632.06;20869322;28;20220;-70
2021/04/11 01:23:11;;;;;;;43.67;29.00;;;;;;;8.49;83.79;100652.22;20871214;28;20631;-69
2021/04/11 01:33:15;;;;;;;38.80;26.77;;;;;;;8.39;84.66;100645.66;20868650;28;20236;-68
2021/04/11 01:43:16;;;;;;;31.70;24.00;;;;;;;8.35;84.80;100633.44;20863490;28;20247;-68
2021/04/11 01:53:18;;;;;;;33.75;24.80;;;;;;;8.25;85.53;100633.88;20865945;28;20232;-66
2021/04/11 02:03:19;;;;;;;33.87;23.93;;;;;;;8.13;85.28;100613.22;20867169;28;20903;-54
2021/04/11 02:13:33;;;;;;;28.43;21.80;;;;;;;8.10;86.01;100616.03;20867224;28;20231;-57
2021/04/11 02:23:36;;;;;;;36.27;25.63;;;;;;;7.80;87.26;100605.09;20864208;28;20285;-67
2021/04/11 02:33:36;;;;;;;31.60;25.53;;;;;;;7.37;90.21;100600.09;20865901;28;20293;-54
2021/04/11 02:43:37;;;;;;;54.50;33.50;;;;;;;7.02;92.26;100596.41;20864833;28;20235;-68
2021/04/11 02:53:39;;;;;;;37.27;27.63;;;;;;;6.77;94.06;100597.50;20863852;28;20234;-62
2021/04/11 03:03:40;;;;;;;40.67;28.80;;;;;;;6.67;94.65;100598.84;20878430;28;20220;-62
2021/04/11 03:13:40;;;;;;;43.20;29.93;;;;;;;6.74;95.75;100613.56;20879670;28;20226;-58
2021/04/11 03:23:41;;;;;;;33.13;25.47;;;;;;;6.85;94.72;100624.56;20876259;28;20693;-59
2021/04/11 03:33:52;;;;;;;38.77;27.37;;;;;;;6.72;93.96;100612.78;20877384;28;20236;-67
2021/04/11 03:43:54;;;;;;;44.00;30.53;;;;;;;6.47;94.32;100618.25;20877915;28;20747;-54
2021/04/11 03:54:00;;;;;;;30.17;21.87;;;;;;;6.19;94.93;100625.63;20876293;28;20227;-66
2021/04/11 04:04:04;;;;;;;40.23;25.60;;;;;;;5.96;96.47;100631.88;20874079;28;20579;-66
2021/04/11 04:14:14;;;;;;;41.17;28.13;;;;;;;5.82;98.54;100634.19;20872289;28;20230;-68
2021/04/11 04:24:31;;;;;;;35.70;25.13;;;;;;;5.74;98.24;100637.16;20868475;28;20302;-66
2021/04/11 04:34:47;;;;;;;47.57;31.97;;;;;;;5.82;100.00;100639.47;20870318;28;20234;-64
2021/04/11 04:44:56;;;;;;;49.27;33.93;;;;;;;6.14;100.00;100647.03;20868645;28;20670;-56
2021/04/11 04:54:59;;;;;;;51.80;36.43;;;;;;;6.63;98.64;100649.44;20870676;28;20231;-56
2021/04/11 05:05:08;;;;;;;39.60;30.07;;;;;;;7.13;95.01;100671.06;20868025;28;20234;-53
2021/04/11 05:15:33;;;;;;;33.53;25.63;;;;;;;7.73;91.27;100663.94;20869013;28;20277;-56
2021/04/11 05:25:41;;;;;;;27.77;22.97;;;;;;;8.24;88.37;100666.72;20866325;28;20230;-53
2021/04/11 05:35:41;;;;;;;26.57;19.53;;;;;;;8.74;85.91;100668.69;20865597;28;20298;-57
2021/04/11 05:45:57;;;;;;;20.53;15.87;;;;;;;9.21;83.90;100662.66;20864696;28;20737;-60
2021/04/11 05:56:10;;;;;;;17.87;15.03;;;;;;;9.66;81.29;100654.84;20864675;28;20259;-55
2021/04/11 06:06:23;;;;;;;20.13;14.13;;;;;;;10.21;76.83;100657.13;20864583;28;20259;-60
2021/04/11 06:16:26;;;;;;;20.07;14.17;;;;;;;10.69;76.68;100663.22;20865500;28;20408;-65
2021/04/11 06:26:26;;;;;;;17.07;12.53;;;;;;;11.12;75.58;100648.13;20861463;28;20229;-64
2021/04/11 06:36:36;;;;;;;14.87;10.57;;;;;;;11.51;70.16;100643.00;20877089;28;20593;-63
2021/04/11 06:47:03;;;;;;;17.47;12.90;;;;;;;11.87;66.16;100636.28;20853380;28;20219;-58
2021/04/11 06:57:22;;;;;;;16.03;11.80;;;;;;;12.18;64.48;100640.50;20864398;28;20554;-58
2021/04/11 07:07:38;;;;;;;14.87;10.60;;;;;;;12.56;64.78;100638.78;20851147;28;20221;-54
2021/04/11 07:17:56;;;;;;;14.33;11.23;;;;;;;12.90;65.30;100632.03;20826531;28;20233;-54
2021/04/11 07:28:07;;;;;;;14.87;10.37;;;;;;;13.23;64.65;100634.19;20790862;28;20241;-55
2021/04/11 07:38:17;;;;;;;16.63;11.47;;;;;;;13.55;60.12;100628.38;20808002;28;20383;-59
2021/04/11 07:48:45;;;;;;;14.47;9.20;;;;;;;13.99;59.75;100626.03;20800217;28;20293;-55
2021/04/11 07:58:50;;;;;;;12.83;8.60;;;;;;;14.41;59.49;100619.31;20851255;28;20231;-55
2021/04/11 08:09:09;;;;;;;11.00;7.87;;;;;;;14.91;61.05;100616.41;20832378;28;20227;-55
2021/04/11 08:19:31;;;;;;;13.97;9.10;;;;;;;15.34;54.96;100614.72;20843169;28;20409;-64
2021/04/11 08:29:49;;;;;;;9.33;7.43;;;;;;;15.86;53.35;100607.88;20858032;28;20223;-70
2021/04/11 08:40:08;;;;;;;10.70;9.53;;;;;;;16.01;50.88;100601.25;20838956;28;20243;-68
2021/04/11 08:50:17;;;;;;;13.47;9.80;;;;;;;16.33;51.56;100597.72;20858269;28;20762;-62
2021/04/11 09:00:21;;;;;;;12.60;9.17;;;;;;;16.53;50.72;100595.06;20823247;28;20704;-54
2021/04/11 09:10:54;;;;;;;14.77;9.30;;;;;;;16.75;50.14;100577.97;20883246;28;20223;-60
2021/04/11 09:21:12;;;;;;;13.57;8.50;;;;;;;17.00;47.17;100565.06;20856142;28;20728;-64
2021/04/11 09:31:29;;;;;;;7.13;6.10;;;;;;;17.14;46.28;100548.53;20887015;28;20250;-57
2021/04/11 09:41:52;;;;;;;8.23;6.57;;;;;;;17.36;47.05;100528.59;20872294;28;20631;-53
2021/04/11 09:51:52;;;;;;;7.17;4.67;;;;;;;17.60;49.06;100532.66;20877068;28;20280;-53
2021/04/11 10:02:24;;;;;;;5.57;3.87;;;;;;;17.75;42.44;100518.78;20885059;28;20219;-59
2021/04/11 10:12:46;;;;;;;3.70;3.00;;;;;;;17.93;42.53;100523.34;20889565;28;20222;-52
2021/04/11 10:22:56;;;;;;;3.93;3.07;;;;;;;18.09;42.41;100495.78;20906782;28;20224;-53
2021/04/11 10:33:06;;;;;;;7.67;2.73;;;;;;;18.48;43.01;100503.84;20882342;28;20226;-53
2021/04/11 10:43:26;;;;;;;5.80;2.63;;;;;;;18.59;42.34;100484.81;20902264;28;20229;-52
2021/04/11 10:54:07;;;;;;;25.63;4.27;;;;;;;18.52;40.80;100470.13;20886985;28;20229;-54
2021/04/11 11:04:44;;;;;;;3.73;2.87;;;;;;;18.66;42.13;100477.81;20901529;28;20609;-64
2021/04/11 11:15:05;;;;;;;3.30;2.40;;;;;;;18.87;39.64;100472.19;20877601;28;20229;-55
2021/04/11 11:25:24;;;;;;;4.70;2.30;;;;;;;19.12;41.72;100485.03;20846743;28;20431;-63
2021/04/11 11:35:25;;;;;;;4.03;2.00;;;;;;;19.26;44.84;100481.00;20880974;28;20237;-55
2021/04/11 11:45:31;;;;;;;3.10;2.70;;;;;;;19.25;45.35;100463.03;20887713;28;20999;-55
2021/04/11 11:56:01;;;;;;;4.37;2.60;;;;;;;19.42;41.24;100456.84;20888124;28;20220;-59
2021/04/11 12:06:29;;;;;;;4.43;2.57;;;;;;;19.64;41.34;100445.59;20874571;28;20220;-61
2021/04/11 12:16:33;;;;;;;2.70;2.30;;;;;;;19.93;43.33;100430.94;20889173;28;20224;-56
2021/04/11 12:26:40;;;;;;;3.10;2.10;;;;;;;20.06;43.88;100416.00;20878767;28;20612;-54
2021/04/11 12:36:50;;;;;;;8.23;4.30;;;;;;;20.21;40.14;100418.16;20916571;28;20728;-55
2021/04/11 12:47:18;;;;;;;7.47;3.43;;;;;;;20.34;37.26;100403.19;20870240;28;20246;-55
2021/04/11 12:57:23;;;;;;;3.07;2.60;;;;;;;20.61;41.38;100401.34;20894278;28;20227;-57
2021/04/11 13:07:30;;;;;;;4.13;2.63;;;;;;;20.71;39.59;100402.06;20871214;28;20763;-56
2021/04/11 13:17:49;;;;;;;3.23;2.23;;;;;;;20.73;42.36;100410.91;20891484;28;20223;-55
2021/04/11 13:28:05;;;;;;;3.77;2.37;;;;;;;20.91;37.76;100389.94;20873536;28;20276;-55
2021/04/11 13:38:08;;;;;;;4.30;2.57;;;;;;;20.71;41.31;100389.38;20887061;28;20273;-55
2021/04/11 13:48:33;;;;;;;2.33;2.10;;;;;;;20.72;39.46;100395.63;20876233;28;20255;-67
2021/04/11 13:58:50;;;;;;;2.10;1.90;;;;;;;21.03;38.91;100385.94;20882198;28;20333;-60
2021/04/11 14:08:57;;;;;;;2.40;2.07;;;;;;;21.44;40.35;100394.22;20881370;28;20223;-56
2021/04/11 14:19:09;;;;;;;2.93;1.80;;;;;;;21.95;36.33;100395.81;20873897;28;20684;-58
2021/04/11 14:29:21;;;;;;;2.20;2.00;;;;;;;21.77;36.08;100389.69;20886875;28;20238;-61
2021/04/11 14:39:29;;;;;;;2.07;1.87;;;;;;;21.63;38.33;100380.31;20865673;28;20581;-62
2021/04/11 14:49:29;;;;;;;2.20;2.00;;;;;;;21.93;40.68;100376.09;20887733;28;20223;-57
2021/04/11 14:59:55;;;;;;;4.87;2.20;;;;;;;21.43;38.47;100381.66;20880157;28;20235;-55
2021/04/11 15:10:24;;;;;;;3.00;2.00;;;;;;;20.75;41.07;100368.19;20893756;28;20229;-53
2021/04/11 15:20:28;;;;;;;1.73;1.63;;;;;;;20.33;41.73;100363.53;20844231;28;20261;-54
2021/04/11 15:31:17;;;;;;;2.70;1.97;;;;;;;20.17;38.13;100367.97;20728969;28;20239;-53
2021/04/11 15:41:24;;;;;;;2.10;1.73;;;;;;;19.96;42.05;100371.06;20792195;28;20234;-54
2021/04/11 15:51:42;;;;;;;3.73;2.00;;;;;;;19.62;40.67;100362.81;20811874;28;20271;-53
2021/04/11 16:01:46;;;;;;;2.23;2.03;;;;;;;19.24;42.97;100374.75;20804699;28;20232;-54
2021/04/11 16:12:20;;;;;;;2.23;2.00;;;;;;;18.83;41.10;100371.59;20802287;28;20319;-53
2021/04/11 16:22:26;;;;;;;8.10;2.60;;;;;;;18.37;44.80;100364.34;20810278;28;20227;-54
2021/04/11 16:32:41;;;;;;;3.17;2.20;;;;;;;17.94;44.12;100362.19;20795874;28;20593;-57
2021/04/11 16:43:04;;;;;;;2.67;2.47;;;;;;;17.57;43.59;100367.44;20811561;28;20228;-58
2021/04/11 16:53:10;;;;;;;2.67;2.47;;;;;;;17.20;45.49;100361.88;20786301;28;20231;-53
2021/04/11 17:03:39;;;;;;;3.40;2.50;;;;;;;16.96;44.62;100375.75;20819489;28;20239;-56
2021/04/11 17:13:51;;;;;;;4.10;2.70;;;;;;;16.70;46.18;100377.22;20782940;28;20224;-53
2021/04/11 17:24:18;;;;;;;3.87;3.17;;;;;;;16.43;44.92;100394.78;20808910;28;20236;-53
2021/04/11 17:34:33;;;;;;;3.33;2.80;;;;;;;16.25;47.46;100404.47;20788561;28;20232;-60
2021/04/11 17:44:53;;;;;;;5.53;2.77;;;;;;;16.17;47.17;100426.69;20730750;28;20239;-53
2021/04/11 17:54:59;;;;;;;4.37;2.80;;;;;;;16.16;48.11;100438.44;20710348;28;20228;-53
2021/04/11 18:05:20;;;;;;;4.13;2.97;;;;;;;16.19;46.00;100456.16;20716109;28;20577;-53
2021/04/11 18:15:36;;;;;;;5.63;2.87;;;;;;;16.23;47.84;100462.13;20716286;28;20240;-53
2021/04/11 18:26:10;;;;;;;4.10;3.20;;;;;;;16.26;46.05;100478.03;20714370;28;20311;-54
2021/04/11 18:36:28;;;;;;;3.33;2.87;;;;;;;16.13;48.01;100468.31;20735950;28;20885;-59
2021/04/11 18:46:58;;;;;;;5.03;3.20;;;;;;;15.98;47.51;100485.75;20740452;28;20601;-61
2021/04/11 18:57:27;;;;;;;3.17;2.87;;;;;;;15.93;47.61;100503.28;20750821;28;20714;-57
2021/04/11 19:07:41;;;;;;;3.37;2.70;;;;;;;15.83;50.94;100524.72;20732726;28;20895;-69
2021/04/11 19:18:03;;;;;;;4.57;2.43;;;;;;;15.54;53.35;100534.31;20714237;28;20240;-53
2021/04/11 19:28:03;;;;;;;1.77;1.67;;;;;;;15.23;54.60;100535.91;20737415;28;20228;-53
2021/04/11 19:38:24;;;;;;;1.50;1.40;;;;;;;15.00;57.08;100545.81;20715024;28;20228;-63
2021/04/11 19:48:57;;;;;;;1.40;1.30;;;;;;;14.74;59.16;100550.53;20733293;28;20682;-61
2021/04/11 19:59:12;;;;;;;2.00;1.70;;;;;;;14.52;59.40;100545.97;20712579;28;20225;-53
2021/04/11 20:09:50;;;;;;;3.40;2.10;;;;;;;14.35;59.37;100536.50;20729402;28;20257;-52
2021/04/11 20:20:16;;;;;;;2.20;2.00;;;;;;;14.27;58.81;100540.72;20722234;28;20650;-53
2021/04/11 20:30:35;;;;;;;1.40;1.30;;;;;;;14.22;59.22;100532.19;20720625;28;20226;-53
2021/04/11 20:40:43;;;;;;;2.63;1.80;;;;;;;14.15;59.78;100539.84;20726420;28;20230;-52
2021/04/11 20:51:05;;;;;;;2.53;1.37;;;;;;;14.07;60.51;100540.44;20717862;28;20256;-52
2021/04/11 21:01:24;;;;;;;1.30;1.20;;;;;;;14.07;60.47;100542.25;20727722;28;20696;-54
2021/04/11 21:11:53;;;;;;;1.47;1.20;;;;;;;13.96;61.26;100543.06;20707893;28;20284;-52
2021/04/11 21:22:16;;;;;;;2.20;1.50;;;;;;;13.91;61.62;100539.00;20727719;28;20249;-54
2021/04/11 21:32:23;;;;;;;3.00;1.80;;;;;;;13.87;62.02;100542.91;20696660;28;20305;-52
2021/04/11 21:42:42;;;;;;;2.20;2.00;;;;;;;13.87;62.00;100542.91;20726479;28;20247;-52
2021/04/11 21:53:04;;;;;;;1.87;1.70;;;;;;;13.87;62.40;100549.13;20708428;28;20225;-56
2021/04/11 22:03:12;;;;;;;3.43;2.03;;;;;;;13.80;62.67;100547.84;20721798;28;20292;-57
2021/04/11 22:13:53;;;;;;;2.17;1.90;;;;;;;13.77;63.73;100542.69;20713902;28;20301;-55
2021/04/11 22:24:18;;;;;;;3.17;2.00;;;;;;;13.70;63.95;100562.91;20547346;28;20231;-53
2021/04/11 22:34:25;;;;;;;2.23;1.93;;;;;;;13.67;63.35;100547.03;20717457;28;20233;-53
2021/04/11 22:44:50;;;;;;;3.53;2.40;;;;;;;13.66;62.78;100543.50;20715725;28;20385;-64
2021/04/11 22:55:28;;;;;;;2.80;2.60;;;;;;;13.54;65.12;100551.56;20721865;28;20228;-60
2021/04/11 23:05:44;;;;;;;3.47;3.10;;;;;;;13.33;65.54;100565.56;20705634;28;20219;-53
2021/04/11 23:15:47;;;;;;;4.17;2.90;;;;;;;13.18;65.92;100558.63;20730399;28;20282;-54
2021/04/11 23:25:48;;;;;;;3.40;3.00;;;;;;;13.08;66.11;100549.50;20715706;28;20280;-53
2021/04/11 23:35:52;;;;;;;3.47;3.17;;;;;;;12.98;66.11;100533.22;20736222;28;20238;-53
2021/04/11 23:45:56;;;;;;;4.20;3.10;;;;;;;12.90;67.27;100532.91;20713970;28;20226;-70
2021/04/11 23:56:03;;;;;;;4.23;3.13;;;;;;;12.80;67.54;100525.66;20731539;28;20221;-70
